sensor_id;sensor_type;location;lat;lon;timestamp;P1;durP1;ratioP1;P2;durP2;ratioP2
34775;SDS011;20989;52.566;13.346;2022-12-29T00:00:27;0.70;;;0.70;;
34775;SDS011;20989;52.566;13.346;2022-12-29T00:03:28;0.65;;;0.65;;
34775;SDS011;20989;52.566;13.346;2022-12-29T00:06:28;0.45;;;0.45;;
34775;SDS011;20989;52.566;13.346;2022-12-29T00:09:29;0.57;;;0.57;;
34775;SDS011;20989;52.566;13.346;2022-12-29T00:12:30;0.60;;;0.60;;
34775;SDS011;20989;52.566;13.346;2022-12-29T00:15:51;0.77;;;0.77;;
34775;SDS011;20989;52.566;13.346;2022-12-29T00:18:52;0.80;;;0.65;;
34775;SDS011;20989;52.566;13.346;2022-12-29T00:21:52;0.63;;;0.63;;
34775;SDS011;20989;52.566;13.346;2022-12-29T00:25:12;0.70;;;0.70;;
34775;SDS011;20989;52.566;13.346;2022-12-29T00:28:32;0.70;;;0.70;;
34775;SDS011;20989;52.566;13.346;2022-12-29T00:31:51;0.60;;;0.60;;
34775;SDS011;20989;52.566;13.346;2022-12-29T00:35:12;0.63;;;0.63;;
34775;SDS011;20989;52.566;13.346;2022-12-29T00:38:18;1.00;;;0.77;;
34775;SDS011;20989;52.566;13.346;2022-12-29T00:41:37;0.68;;;0.68;;
34775;SDS011;20989;52.566;13.346;2022-12-29T00:44:56;0.60;;;0.60;;
34775;SDS011;20989;52.566;13.346;2022-12-29T00:47:57;0.55;;;0.55;;
34775;SDS011;20989;52.566;13.346;2022-12-29T00:50:57;1.20;;;1.10;;
34775;SDS011;20989;52.566;13.346;2022-12-29T00:53:58;0.60;;;0.60;;
34775;SDS011;20989;52.566;13.346;2022-12-29T00:56:59;0.90;;;0.90;;
34775;SDS011;20989;52.566;13.346;2022-12-29T01:00:00;0.63;;;0.63;;
34775;SDS011;20989;52.566;13.346;2022-12-29T01:03:00;0.68;;;0.68;;
34775;SDS011;20989;52.566;13.346;2022-12-29T01:06:04;0.80;;;0.80;;
34775;SDS011;20989;52.566;13.346;2022-12-29T01:09:07;0.60;;;0.60;;
34775;SDS011;20989;52.566;13.346;2022-12-29T01:12:27;0.73;;;0.73;;
34775;SDS011;20989;52.566;13.346;2022-12-29T01:15:49;0.60;;;0.60;;
34775;SDS011;20989;52.566;13.346;2022-12-29T01:18:50;0.63;;;0.63;;
34775;SDS011;20989;52.566;13.346;2022-12-29T01:21:51;0.40;;;0.40;;
34775;SDS011;20989;52.566;13.346;2022-12-29T01:24:52;0.63;;;0.63;;
34775;SDS011;20989;52.566;13.346;2022-12-29T01:27:52;0.77;;;0.60;;
34775;SDS011;20989;52.566;13.346;2022-12-29T01:30:53;0.95;;;0.47;;
34775;SDS011;20989;52.566;13.346;2022-12-29T01:33:53;0.47;;;0.47;;
34775;SDS011;20989;52.566;13.346;2022-12-29T01:36:54;0.50;;;0.50;;
34775;SDS011;20989;52.566;13.346;2022-12-29T01:39:55;0.60;;;0.60;;
34775;SDS011;20989;52.566;13.346;2022-12-29T01:42:55;0.80;;;0.80;;
34775;SDS011;20989;52.566;13.346;2022-12-29T01:45:56;0.65;;;0.60;;
34775;SDS011;20989;52.566;13.346;2022-12-29T01:49:18;0.60;;;0.60;;
34775;SDS011;20989;52.566;13.346;2022-12-29T01:52:19;0.50;;;0.50;;
34775;SDS011;20989;52.566;13.346;2022-12-29T01:55:22;0.40;;;0.40;;
34775;SDS011;20989;52.566;13.346;2022-12-29T01:58:24;0.50;;;0.50;;
34775;SDS011;20989;52.566;13.346;2022-12-29T02:01:29;0.70;;;0.70;;
34775;SDS011;20989;52.566;13.346;2022-12-29T02:04:30;0.60;;;0.60;;
34775;SDS011;20989;52.566;13.346;2022-12-29T02:07:32;0.50;;;0.50;;
34775;SDS011;20989;52.566;13.346;2022-12-29T02:10:33;1.52;;;0.65;;
34775;SDS011;20989;52.566;13.346;2022-12-29T02:13:36;0.60;;;0.60;;
34775;SDS011;20989;52.566;13.346;2022-12-29T02:36:11;0.40;;;0.40;;
34775;SDS011;20989;52.566;13.346;2022-12-29T02:39:40;0.40;;;0.40;;
34775;SDS011;20989;52.566;13.346;2022-12-29T02:42:54;0.70;;;0.70;;
34775;SDS011;20989;52.566;13.346;2022-12-29T02:46:21;0.50;;;0.47;;
34775;SDS011;20989;52.566;13.346;2022-12-29T02:49:39;0.40;;;0.40;;
34775;SDS011;20989;52.566;13.346;2022-12-29T02:52:54;0.55;;;0.55;;
34775;SDS011;20989;52.566;13.346;2022-12-29T02:56:16;0.50;;;0.50;;
34775;SDS011;20989;52.566;13.346;2022-12-29T02:59:17;0.63;;;0.63;;
34775;SDS011;20989;52.566;13.346;2022-12-29T03:02:30;0.50;;;0.50;;
34775;SDS011;20989;52.566;13.346;2022-12-29T03:06:11;0.60;;;0.60;;
34775;SDS011;20989;52.566;13.346;2022-12-29T03:12:34;0.40;;;0.40;;
34775;SDS011;20989;52.566;13.346;2022-12-29T03:16:35;0.70;;;0.70;;
34775;SDS011;20989;52.566;13.346;2022-12-29T03:19:47;0.50;;;0.50;;
34775;SDS011;20989;52.566;13.346;2022-12-29T03:22:51;0.70;;;0.70;;
34775;SDS011;20989;52.566;13.346;2022-12-29T03:25:58;0.40;;;0.40;;
34775;SDS011;20989;52.566;13.346;2022-12-29T03:29:04;0.50;;;0.50;;
34775;SDS011;20989;52.566;13.346;2022-12-29T03:32:06;0.50;;;0.50;;
34775;SDS011;20989;52.566;13.346;2022-12-29T03:35:10;0.43;;;0.43;;
34775;SDS011;20989;52.566;13.346;2022-12-29T03:38:14;0.50;;;0.50;;
34775;SDS011;20989;52.566;13.346;2022-12-29T03:41:24;0.50;;;0.50;;
34775;SDS011;20989;52.566;13.346;2022-12-29T03:44:38;0.47;;;0.40;;
34775;SDS011;20989;52.566;13.346;2022-12-29T03:47:40;0.50;;;0.50;;
34775;SDS011;20989;52.566;13.346;2022-12-29T03:50:41;0.38;;;0.38;;
34775;SDS011;20989;52.566;13.346;2022-12-29T03:53:42;0.40;;;0.40;;
34775;SDS011;20989;52.566;13.346;2022-12-29T03:56:42;0.40;;;0.40;;
34775;SDS011;20989;52.566;13.346;2022-12-29T03:59:43;0.50;;;0.50;;
34775;SDS011;20989;52.566;13.346;2022-12-29T04:02:43;1.60;;;0.80;;
34775;SDS011;20989;52.566;13.346;2022-12-29T04:05:44;0.50;;;0.50;;
34775;SDS011;20989;52.566;13.346;2022-12-29T04:08:44;0.43;;;0.43;;
34775;SDS011;20989;52.566;13.346;2022-12-29T04:11:45;0.57;;;0.57;;
34775;SDS011;20989;52.566;13.346;2022-12-29T04:14:46;0.60;;;0.60;;
34775;SDS011;20989;52.566;13.346;2022-12-29T04:17:46;0.60;;;0.60;;
34775;SDS011;20989;52.566;13.346;2022-12-29T04:20:47;0.70;;;0.70;;
34775;SDS011;20989;52.566;13.346;2022-12-29T04:23:59;0.50;;;0.50;;
34775;SDS011;20989;52.566;13.346;2022-12-29T04:27:00;0.60;;;0.60;;
34775;SDS011;20989;52.566;13.346;2022-12-29T04:30:01;0.40;;;0.40;;
34775;SDS011;20989;52.566;13.346;2022-12-29T04:33:02;0.68;;;0.57;;
34775;SDS011;20989;52.566;13.346;2022-12-29T04:36:03;0.60;;;0.60;;
34775;SDS011;20989;52.566;13.346;2022-12-29T04:39:03;0.40;;;0.40;;
34775;SDS011;20989;52.566;13.346;2022-12-29T04:42:05;0.60;;;0.60;;
34775;SDS011;20989;52.566;13.346;2022-12-29T04:45:05;0.40;;;0.40;;
34775;SDS011;20989;52.566;13.346;2022-12-29T04:48:06;0.40;;;0.40;;
34775;SDS011;20989;52.566;13.346;2022-12-29T04:51:07;0.70;;;0.70;;
34775;SDS011;20989;52.566;13.346;2022-12-29T04:54:08;0.45;;;0.45;;
34775;SDS011;20989;52.566;13.346;2022-12-29T04:57:08;0.60;;;0.60;;
34775;SDS011;20989;52.566;13.346;2022-12-29T05:03:40;0.50;;;0.50;;
34775;SDS011;20989;52.566;13.346;2022-12-29T05:06:41;0.50;;;0.50;;
34775;SDS011;20989;52.566;13.346;2022-12-29T05:09:42;0.50;;;0.50;;
34775;SDS011;20989;52.566;13.346;2022-12-29T05:12:42;0.50;;;0.50;;
34775;SDS011;20989;52.566;13.346;2022-12-29T05:16:01;0.43;;;0.43;;
34775;SDS011;20989;52.566;13.346;2022-12-29T05:19:02;0.50;;;0.50;;
34775;SDS011;20989;52.566;13.346;2022-12-29T05:22:02;0.50;;;0.50;;
34775;SDS011;20989;52.566;13.346;2022-12-29T05:25:03;0.55;;;0.55;;
34775;SDS011;20989;52.566;13.346;2022-12-29T05:28:04;0.68;;;0.68;;
34775;SDS011;20989;52.566;13.346;2022-12-29T05:31:05;0.60;;;0.60;;
34775;SDS011;20989;52.566;13.346;2022-12-29T05:34:06;0.55;;;0.55;;
34775;SDS011;20989;52.566;13.346;2022-12-29T05:37:06;0.57;;;0.57;;
34775;SDS011;20989;52.566;13.346;2022-12-29T05:40:07;0.50;;;0.50;;
34775;SDS011;20989;52.566;13.346;2022-12-29T05:43:08;1.38;;;0.57;;
34775;SDS011;20989;52.566;13.346;2022-12-29T05:46:08;1.17;;;0.60;;
34775;SDS011;20989;52.566;13.346;2022-12-29T05:49:09;0.50;;;0.50;;
34775;SDS011;20989;52.566;13.346;2022-12-29T05:52:10;0.63;;;0.63;;
34775;SDS011;20989;52.566;13.346;2022-12-29T05:55:10;0.60;;;0.60;;
34775;SDS011;20989;52.566;13.346;2022-12-29T05:58:11;0.45;;;0.45;;
34775;SDS011;20989;52.566;13.346;2022-12-29T06:01:12;0.50;;;0.50;;
34775;SDS011;20989;52.566;13.346;2022-12-29T06:04:12;0.60;;;0.60;;
34775;SDS011;20989;52.566;13.346;2022-12-29T06:07:13;0.57;;;0.57;;
34775;SDS011;20989;52.566;13.346;2022-12-29T06:10:14;0.77;;;0.57;;
34775;SDS011;20989;52.566;13.346;2022-12-29T06:13:14;0.60;;;0.60;;
34775;SDS011;20989;52.566;13.346;2022-12-29T06:16:15;0.50;;;0.50;;
34775;SDS011;20989;52.566;13.346;2022-12-29T06:19:15;0.70;;;0.70;;
34775;SDS011;20989;52.566;13.346;2022-12-29T06:22:16;0.55;;;0.55;;
34775;SDS011;20989;52.566;13.346;2022-12-29T06:25:17;4.15;;;0.75;;
34775;SDS011;20989;52.566;13.346;2022-12-29T06:28:17;4.55;;;0.60;;
34775;SDS011;20989;52.566;13.346;2022-12-29T06:31:18;1.40;;;0.75;;
34775;SDS011;20989;52.566;13.346;2022-12-29T06:34:18;6.28;;;1.20;;
34775;SDS011;20989;52.566;13.346;2022-12-29T06:37:19;12.50;;;1.00;;
34775;SDS011;20989;52.566;13.346;2022-12-29T06:40:20;18.65;;;1.20;;
34775;SDS011;20989;52.566;13.346;2022-12-29T06:43:21;6.97;;;1.23;;
34775;SDS011;20989;52.566;13.346;2022-12-29T06:46:22;6.13;;;0.70;;
34775;SDS011;20989;52.566;13.346;2022-12-29T06:49:22;5.68;;;0.68;;
34775;SDS011;20989;52.566;13.346;2022-12-29T06:52:23;6.85;;;1.10;;
34775;SDS011;20989;52.566;13.346;2022-12-29T06:55:24;8.45;;;0.90;;
34775;SDS011;20989;52.566;13.346;2022-12-29T06:58:24;5.18;;;0.80;;
34775;SDS011;20989;52.566;13.346;2022-12-29T07:01:25;0.90;;;0.50;;
34775;SDS011;20989;52.566;13.346;2022-12-29T07:04:26;6.15;;;0.75;;
34775;SDS011;20989;52.566;13.346;2022-12-29T07:07:27;3.88;;;0.52;;
34775;SDS011;20989;52.566;13.346;2022-12-29T07:10:27;1.95;;;0.80;;
34775;SDS011;20989;52.566;13.346;2022-12-29T07:13:28;3.80;;;0.93;;
34775;SDS011;20989;52.566;13.346;2022-12-29T07:16:29;1.00;;;0.73;;
34775;SDS011;20989;52.566;13.346;2022-12-29T07:19:30;4.97;;;1.00;;
34775;SDS011;20989;52.566;13.346;2022-12-29T07:22:30;3.25;;;1.10;;
34775;SDS011;20989;52.566;13.346;2022-12-29T07:25:31;3.63;;;1.60;;
34775;SDS011;20989;52.566;13.346;2022-12-29T07:28:32;2.88;;;1.80;;
34775;SDS011;20989;52.566;13.346;2022-12-29T07:31:34;6.43;;;1.27;;
34775;SDS011;20989;52.566;13.346;2022-12-29T07:34:34;2.95;;;1.65;;
34775;SDS011;20989;52.566;13.346;2022-12-29T07:37:35;6.35;;;1.42;;
34775;SDS011;20989;52.566;13.346;2022-12-29T07:40:35;5.13;;;1.73;;
34775;SDS011;20989;52.566;13.346;2022-12-29T07:43:36;2.88;;;1.42;;
34775;SDS011;20989;52.566;13.346;2022-12-29T07:46:37;2.17;;;1.65;;
34775;SDS011;20989;52.566;13.346;2022-12-29T07:49:37;1.33;;;1.17;;
34775;SDS011;20989;52.566;13.346;2022-12-29T07:52:38;2.20;;;1.33;;
34775;SDS011;20989;52.566;13.346;2022-12-29T07:55:38;5.28;;;1.23;;
34775;SDS011;20989;52.566;13.346;2022-12-29T07:58:39;3.63;;;1.23;;
34775;SDS011;20989;52.566;13.346;2022-12-29T08:01:42;12.82;;;1.42;;
34775;SDS011;20989;52.566;13.346;2022-12-29T08:04:42;3.55;;;1.30;;
34775;SDS011;20989;52.566;13.346;2022-12-29T08:07:43;6.03;;;1.20;;
34775;SDS011;20989;52.566;13.346;2022-12-29T08:10:45;0.95;;;0.95;;
34775;SDS011;20989;52.566;13.346;2022-12-29T08:13:45;1.40;;;1.20;;
34775;SDS011;20989;52.566;13.346;2022-12-29T08:16:46;3.55;;;1.08;;
34775;SDS011;20989;52.566;13.346;2022-12-29T08:19:47;3.65;;;1.13;;
34775;SDS011;20989;52.566;13.346;2022-12-29T08:22:47;1.08;;;0.98;;
34775;SDS011;20989;52.566;13.346;2022-12-29T08:25:56;1.65;;;1.02;;
34775;SDS011;20989;52.566;13.346;2022-12-29T08:28:57;1.05;;;0.90;;
34775;SDS011;20989;52.566;13.346;2022-12-29T08:31:58;2.22;;;0.90;;
34775;SDS011;20989;52.566;13.346;2022-12-29T08:34:59;1.30;;;1.20;;
34775;SDS011;20989;52.566;13.346;2022-12-29T08:38:00;2.55;;;0.85;;
34775;SDS011;20989;52.566;13.346;2022-12-29T08:41:01;0.77;;;0.77;;
34775;SDS011;20989;52.566;13.346;2022-12-29T08:44:01;0.98;;;0.98;;
34775;SDS011;20989;52.566;13.346;2022-12-29T08:47:02;2.30;;;1.00;;
34775;SDS011;20989;52.566;13.346;2022-12-29T08:50:03;1.27;;;0.95;;
34775;SDS011;20989;52.566;13.346;2022-12-29T08:53:04;0.77;;;0.70;;
34775;SDS011;20989;52.566;13.346;2022-12-29T08:56:04;1.40;;;1.08;;
34775;SDS011;20989;52.566;13.346;2022-12-29T08:59:05;1.33;;;0.98;;
34775;SDS011;20989;52.566;13.346;2022-12-29T09:02:10;0.98;;;0.98;;
34775;SDS011;20989;52.566;13.346;2022-12-29T09:05:12;1.42;;;0.70;;
34775;SDS011;20989;52.566;13.346;2022-12-29T09:08:12;1.40;;;0.90;;
34775;SDS011;20989;52.566;13.346;2022-12-29T09:11:18;0.68;;;0.68;;
34775;SDS011;20989;52.566;13.346;2022-12-29T09:14:20;0.75;;;0.75;;
34775;SDS011;20989;52.566;13.346;2022-12-29T09:17:21;2.88;;;1.20;;
34775;SDS011;20989;52.566;13.346;2022-12-29T09:20:40;0.82;;;0.75;;
34775;SDS011;20989;52.566;13.346;2022-12-29T09:23:41;1.38;;;1.27;;
34775;SDS011;20989;52.566;13.346;2022-12-29T09:26:42;0.85;;;0.85;;
34775;SDS011;20989;52.566;13.346;2022-12-29T09:29:42;0.98;;;0.98;;
34775;SDS011;20989;52.566;13.346;2022-12-29T09:32:43;2.33;;;1.30;;
34775;SDS011;20989;52.566;13.346;2022-12-29T09:35:44;3.47;;;1.10;;
34775;SDS011;20989;52.566;13.346;2022-12-29T09:38:50;1.58;;;0.90;;
34775;SDS011;20989;52.566;13.346;2022-12-29T09:41:58;5.47;;;1.20;;
34775;SDS011;20989;52.566;13.346;2022-12-29T09:45:36;1.05;;;1.05;;
34775;SDS011;20989;52.566;13.346;2022-12-29T09:52:30;0.73;;;0.73;;
34775;SDS011;20989;52.566;13.346;2022-12-29T09:55:39;0.77;;;0.77;;
34775;SDS011;20989;52.566;13.346;2022-12-29T09:58:47;2.00;;;0.90;;
34775;SDS011;20989;52.566;13.346;2022-12-29T10:01:58;31.92;;;2.72;;
34775;SDS011;20989;52.566;13.346;2022-12-29T10:05:28;9.80;;;1.30;;
34775;SDS011;20989;52.566;13.346;2022-12-29T10:12:02;4.35;;;1.00;;
34775;SDS011;20989;52.566;13.346;2022-12-29T10:15:29;3.85;;;0.80;;
34775;SDS011;20989;52.566;13.346;2022-12-29T10:25:20;1.52;;;1.13;;
34775;SDS011;20989;52.566;13.346;2022-12-29T10:31:40;1.02;;;0.98;;
34775;SDS011;20989;52.566;13.346;2022-12-29T10:34:56;2.05;;;0.90;;
34775;SDS011;20989;52.566;13.346;2022-12-29T10:41:15;4.88;;;0.82;;
34775;SDS011;20989;52.566;13.346;2022-12-29T10:44:20;3.20;;;1.13;;
34775;SDS011;20989;52.566;13.346;2022-12-29T10:47:26;1.40;;;0.80;;
34775;SDS011;20989;52.566;13.346;2022-12-29T10:50:30;0.70;;;0.70;;
34775;SDS011;20989;52.566;13.346;2022-12-29T10:53:38;0.93;;;0.70;;
34775;SDS011;20989;52.566;13.346;2022-12-29T10:56:47;1.15;;;1.05;;
34775;SDS011;20989;52.566;13.346;2022-12-29T11:09:20;1.30;;;1.05;;
34775;SDS011;20989;52.566;13.346;2022-12-29T11:12:25;0.77;;;0.77;;
34775;SDS011;20989;52.566;13.346;2022-12-29T11:15:37;0.65;;;0.65;;
34775;SDS011;20989;52.566;13.346;2022-12-29T11:18:56;0.60;;;0.60;;
34775;SDS011;20989;52.566;13.346;2022-12-29T11:25:22;1.73;;;0.63;;
34775;SDS011;20989;52.566;13.346;2022-12-29T11:28:22;2.88;;;0.63;;
34775;SDS011;20989;52.566;13.346;2022-12-29T11:31:29;0.80;;;0.80;;
34775;SDS011;20989;52.566;13.346;2022-12-29T11:34:34;0.73;;;0.70;;
34775;SDS011;20989;52.566;13.346;2022-12-29T11:37:39;2.00;;;0.80;;
34775;SDS011;20989;52.566;13.346;2022-12-29T11:40:40;0.82;;;0.80;;
34775;SDS011;20989;52.566;13.346;2022-12-29T11:43:41;0.98;;;0.70;;
34775;SDS011;20989;52.566;13.346;2022-12-29T11:46:45;1.77;;;0.75;;
34775;SDS011;20989;52.566;13.346;2022-12-29T11:49:54;3.40;;;0.82;;
34775;SDS011;20989;52.566;13.346;2022-12-29T11:53:00;2.33;;;0.85;;
34775;SDS011;20989;52.566;13.346;2022-12-29T11:56:05;0.60;;;0.60;;
34775;SDS011;20989;52.566;13.346;2022-12-29T12:05:41;1.10;;;0.52;;
34775;SDS011;20989;52.566;13.346;2022-12-29T12:11:48;0.88;;;0.60;;
34775;SDS011;20989;52.566;13.346;2022-12-29T12:14:55;4.55;;;0.85;;
34775;SDS011;20989;52.566;13.346;2022-12-29T12:18:01;0.98;;;0.70;;
34775;SDS011;20989;52.566;13.346;2022-12-29T12:27:23;1.25;;;0.60;;
34775;SDS011;20989;52.566;13.346;2022-12-29T12:30:37;2.78;;;0.60;;
34775;SDS011;20989;52.566;13.346;2022-12-29T12:33:44;2.10;;;0.70;;
34775;SDS011;20989;52.566;13.346;2022-12-29T12:36:54;2.78;;;0.52;;
34775;SDS011;20989;52.566;13.346;2022-12-29T12:46:43;5.75;;;1.05;;
34775;SDS011;20989;52.566;13.346;2022-12-29T12:53:36;2.42;;;0.85;;
34775;SDS011;20989;52.566;13.346;2022-12-29T12:57:53;2.88;;;0.88;;
34775;SDS011;20989;52.566;13.346;2022-12-29T13:01:24;5.97;;;1.05;;
34775;SDS011;20989;52.566;13.346;2022-12-29T13:10:38;2.05;;;0.60;;
34775;SDS011;20989;52.566;13.346;2022-12-29T13:14:06;1.10;;;0.70;;
34775;SDS011;20989;52.566;13.346;2022-12-29T13:29:57;0.93;;;0.70;;
34775;SDS011;20989;52.566;13.346;2022-12-29T13:33:39;2.45;;;0.70;;
34775;SDS011;20989;52.566;13.346;2022-12-29T13:37:07;1.30;;;0.80;;
34775;SDS011;20989;52.566;13.346;2022-12-29T13:40:15;0.68;;;0.52;;
34775;SDS011;20989;52.566;13.346;2022-12-29T13:43:18;2.67;;;0.50;;
34775;SDS011;20989;52.566;13.346;2022-12-29T13:46:23;1.55;;;0.55;;
34775;SDS011;20989;52.566;13.346;2022-12-29T13:49:28;0.57;;;0.55;;
34775;SDS011;20989;52.566;13.346;2022-12-29T13:52:37;1.25;;;0.60;;
34775;SDS011;20989;52.566;13.346;2022-12-29T13:55:49;2.47;;;0.50;;
34775;SDS011;20989;52.566;13.346;2022-12-29T13:59:29;2.25;;;0.60;;
34775;SDS011;20989;52.566;13.346;2022-12-29T14:06:31;5.20;;;0.70;;
34775;SDS011;20989;52.566;13.346;2022-12-29T14:12:40;1.20;;;0.73;;
34775;SDS011;20989;52.566;13.346;2022-12-29T14:15:44;4.93;;;0.70;;
34775;SDS011;20989;52.566;13.346;2022-12-29T14:18:50;0.98;;;0.70;;
34775;SDS011;20989;52.566;13.346;2022-12-29T14:21:52;2.50;;;0.45;;
34775;SDS011;20989;52.566;13.346;2022-12-29T14:24:59;2.53;;;0.70;;
34775;SDS011;20989;52.566;13.346;2022-12-29T14:28:00;1.15;;;0.47;;
34775;SDS011;20989;52.566;13.346;2022-12-29T14:37:24;1.45;;;0.52;;
34775;SDS011;20989;52.566;13.346;2022-12-29T14:40:29;1.65;;;0.50;;
34775;SDS011;20989;52.566;13.346;2022-12-29T14:43:29;0.93;;;0.50;;
34775;SDS011;20989;52.566;13.346;2022-12-29T14:46:46;7.18;;;0.77;;
34775;SDS011;20989;52.566;13.346;2022-12-29T14:49:54;1.50;;;0.70;;
34775;SDS011;20989;52.566;13.346;2022-12-29T14:52:56;5.53;;;0.88;;
34775;SDS011;20989;52.566;13.346;2022-12-29T14:55:58;5.15;;;0.60;;
34775;SDS011;20989;52.566;13.346;2022-12-29T14:59:03;0.85;;;0.60;;
34775;SDS011;20989;52.566;13.346;2022-12-29T15:02:19;4.63;;;1.08;;
34775;SDS011;20989;52.566;13.346;2022-12-29T15:05:24;3.55;;;1.05;;
34775;SDS011;20989;52.566;13.346;2022-12-29T15:08:30;1.87;;;0.83;;
34775;SDS011;20989;52.566;13.346;2022-12-29T15:14:48;5.57;;;1.05;;
34775;SDS011;20989;52.566;13.346;2022-12-29T15:17:53;3.38;;;0.80;;
34775;SDS011;20989;52.566;13.346;2022-12-29T15:20:55;3.83;;;0.70;;
34775;SDS011;20989;52.566;13.346;2022-12-29T15:23:58;2.33;;;0.60;;
34775;SDS011;20989;52.566;13.346;2022-12-29T15:27:02;3.20;;;0.73;;
34775;SDS011;20989;52.566;13.346;2022-12-29T15:30:03;3.63;;;0.50;;
34775;SDS011;20989;52.566;13.346;2022-12-29T15:33:18;0.85;;;0.73;;
34775;SDS011;20989;52.566;13.346;2022-12-29T15:36:25;2.85;;;0.70;;
34775;SDS011;20989;52.566;13.346;2022-12-29T15:39:28;4.90;;;0.50;;
34775;SDS011;20989;52.566;13.346;2022-12-29T15:42:41;4.18;;;0.57;;
34775;SDS011;20989;52.566;13.346;2022-12-29T15:46:05;4.18;;;0.80;;
34775;SDS011;20989;52.566;13.346;2022-12-29T15:49:06;2.03;;;0.50;;
34775;SDS011;20989;52.566;13.346;2022-12-29T15:52:08;0.57;;;0.50;;
34775;SDS011;20989;52.566;13.346;2022-12-29T15:55:51;2.85;;;0.60;;
34775;SDS011;20989;52.566;13.346;2022-12-29T15:58:42;0.60;;;0.60;;
34775;SDS011;20989;52.566;13.346;2022-12-29T16:01:50;0.93;;;0.60;;
34775;SDS011;20989;52.566;13.346;2022-12-29T16:04:52;6.05;;;0.80;;
34775;SDS011;20989;52.566;13.346;2022-12-29T16:07:55;0.80;;;0.70;;
34775;SDS011;20989;52.566;13.346;2022-12-29T16:10:57;0.90;;;0.50;;
34775;SDS011;20989;52.566;13.346;2022-12-29T16:13:59;2.17;;;0.60;;
34775;SDS011;20989;52.566;13.346;2022-12-29T16:17:01;4.25;;;0.80;;
34775;SDS011;20989;52.566;13.346;2022-12-29T16:20:19;2.78;;;0.60;;
34775;SDS011;20989;52.566;13.346;2022-12-29T16:23:25;0.83;;;0.50;;
34775;SDS011;20989;52.566;13.346;2022-12-29T16:26:28;1.95;;;0.70;;
34775;SDS011;20989;52.566;13.346;2022-12-29T16:29:29;1.30;;;0.45;;
34775;SDS011;20989;52.566;13.346;2022-12-29T16:32:30;5.95;;;0.68;;
34775;SDS011;20989;52.566;13.346;2022-12-29T16:35:38;1.48;;;0.60;;
34775;SDS011;20989;52.566;13.346;2022-12-29T16:38:48;1.25;;;0.70;;
34775;SDS011;20989;52.566;13.346;2022-12-29T16:41:49;1.25;;;0.50;;
34775;SDS011;20989;52.566;13.346;2022-12-29T16:44:51;3.10;;;0.60;;
34775;SDS011;20989;52.566;13.346;2022-12-29T16:51:06;5.43;;;1.02;;
34775;SDS011;20989;52.566;13.346;2022-12-29T16:54:21;1.02;;;0.70;;
34775;SDS011;20989;52.566;13.346;2022-12-29T16:57:49;3.05;;;0.60;;
34775;SDS011;20989;52.566;13.346;2022-12-29T17:00:54;0.70;;;0.60;;
34775;SDS011;20989;52.566;13.346;2022-12-29T17:03:57;0.93;;;0.70;;
34775;SDS011;20989;52.566;13.346;2022-12-29T17:07:00;1.90;;;0.60;;
34775;SDS011;20989;52.566;13.346;2022-12-29T17:10:01;0.63;;;0.50;;
34775;SDS011;20989;52.566;13.346;2022-12-29T17:13:02;1.58;;;0.85;;
34775;SDS011;20989;52.566;13.346;2022-12-29T17:16:03;1.92;;;0.52;;
34775;SDS011;20989;52.566;13.346;2022-12-29T17:19:07;0.63;;;0.50;;
34775;SDS011;20989;52.566;13.346;2022-12-29T17:22:13;0.75;;;0.60;;
34775;SDS011;20989;52.566;13.346;2022-12-29T17:25:17;1.30;;;0.70;;
34775;SDS011;20989;52.566;13.346;2022-12-29T17:28:23;0.40;;;0.40;;
34775;SDS011;20989;52.566;13.346;2022-12-29T17:31:26;3.25;;;0.65;;
34775;SDS011;20989;52.566;13.346;2022-12-29T17:34:26;2.97;;;0.68;;
34775;SDS011;20989;52.566;13.346;2022-12-29T17:37:28;0.88;;;0.40;;
34775;SDS011;20989;52.566;13.346;2022-12-29T17:40:33;1.38;;;0.50;;
34775;SDS011;20989;52.566;13.346;2022-12-29T17:43:35;0.77;;;0.52;;
34775;SDS011;20989;52.566;13.346;2022-12-29T17:46:36;0.63;;;0.60;;
34775;SDS011;20989;52.566;13.346;2022-12-29T17:49:37;0.70;;;0.60;;
34775;SDS011;20989;52.566;13.346;2022-12-29T17:52:37;0.45;;;0.40;;
34775;SDS011;20989;52.566;13.346;2022-12-29T17:55:39;2.45;;;0.45;;
34775;SDS011;20989;52.566;13.346;2022-12-29T17:58:40;0.50;;;0.50;;
34775;SDS011;20989;52.566;13.346;2022-12-29T18:01:42;0.65;;;0.60;;
34775;SDS011;20989;52.566;13.346;2022-12-29T18:04:43;2.33;;;0.47;;
34775;SDS011;20989;52.566;13.346;2022-12-29T18:07:44;0.57;;;0.57;;
34775;SDS011;20989;52.566;13.346;2022-12-29T18:10:44;5.20;;;0.60;;
34775;SDS011;20989;52.566;13.346;2022-12-29T18:13:45;0.40;;;0.40;;
34775;SDS011;20989;52.566;13.346;2022-12-29T18:16:46;3.03;;;0.80;;
34775;SDS011;20989;52.566;13.346;2022-12-29T18:19:46;0.55;;;0.40;;
34775;SDS011;20989;52.566;13.346;2022-12-29T18:22:49;0.52;;;0.40;;
34775;SDS011;20989;52.566;13.346;2022-12-29T18:26:00;18.00;;;0.90;;
34775;SDS011;20989;52.566;13.346;2022-12-29T18:29:06;1.02;;;0.60;;
34775;SDS011;20989;52.566;13.346;2022-12-29T18:32:10;3.50;;;0.60;;
34775;SDS011;20989;52.566;13.346;2022-12-29T18:35:58;0.40;;;0.40;;
34775;SDS011;20989;52.566;13.346;2022-12-29T18:38:33;1.83;;;0.50;;
34775;SDS011;20989;52.566;13.346;2022-12-29T18:41:33;0.55;;;0.45;;
34775;SDS011;20989;52.566;13.346;2022-12-29T18:44:34;2.25;;;0.75;;
34775;SDS011;20989;52.566;13.346;2022-12-29T18:47:35;0.77;;;0.68;;
34775;SDS011;20989;52.566;13.346;2022-12-29T18:50:35;7.20;;;0.90;;
34775;SDS011;20989;52.566;13.346;2022-12-29T18:53:36;6.47;;;1.38;;
34775;SDS011;20989;52.566;13.346;2022-12-29T18:56:36;2.08;;;0.70;;
34775;SDS011;20989;52.566;13.346;2022-12-29T18:59:37;1.60;;;0.80;;
34775;SDS011;20989;52.566;13.346;2022-12-29T19:02:38;2.35;;;1.00;;
34775;SDS011;20989;52.566;13.346;2022-12-29T19:05:40;2.95;;;0.60;;
34775;SDS011;20989;52.566;13.346;2022-12-29T19:08:42;5.38;;;1.00;;
34775;SDS011;20989;52.566;13.346;2022-12-29T19:11:42;6.28;;;1.40;;
34775;SDS011;20989;52.566;13.346;2022-12-29T19:14:43;8.95;;;1.10;;
34775;SDS011;20989;52.566;13.346;2022-12-29T19:17:44;10.43;;;1.67;;
34775;SDS011;20989;52.566;13.346;2022-12-29T19:20:46;9.27;;;1.80;;
34775;SDS011;20989;52.566;13.346;2022-12-29T19:23:48;12.10;;;1.30;;
34775;SDS011;20989;52.566;13.346;2022-12-29T19:26:49;15.02;;;1.88;;
34775;SDS011;20989;52.566;13.346;2022-12-29T19:29:49;6.55;;;1.15;;
34775;SDS011;20989;52.566;13.346;2022-12-29T19:32:51;9.18;;;1.42;;
34775;SDS011;20989;52.566;13.346;2022-12-29T19:35:57;6.65;;;1.98;;
34775;SDS011;20989;52.566;13.346;2022-12-29T19:39:01;9.43;;;1.92;;
34775;SDS011;20989;52.566;13.346;2022-12-29T19:42:01;5.43;;;1.52;;
34775;SDS011;20989;52.566;13.346;2022-12-29T19:45:03;8.02;;;1.27;;
34775;SDS011;20989;52.566;13.346;2022-12-29T19:48:05;5.38;;;0.93;;
34775;SDS011;20989;52.566;13.346;2022-12-29T19:51:08;7.93;;;0.95;;
34775;SDS011;20989;52.566;13.346;2022-12-29T19:54:10;44.30;;;3.20;;
34775;SDS011;20989;52.566;13.346;2022-12-29T19:57:11;6.22;;;1.40;;
34775;SDS011;20989;52.566;13.346;2022-12-29T20:00:11;15.65;;;1.60;;
34775;SDS011;20989;52.566;13.346;2022-12-29T20:03:13;26.10;;;2.20;;
34775;SDS011;20989;52.566;13.346;2022-12-29T20:06:14;23.85;;;1.55;;
34775;SDS011;20989;52.566;13.346;2022-12-29T20:09:15;22.70;;;1.73;;
34775;SDS011;20989;52.566;13.346;2022-12-29T20:12:16;8.15;;;1.35;;
34775;SDS011;20989;52.566;13.346;2022-12-29T20:15:17;10.07;;;1.95;;
34775;SDS011;20989;52.566;13.346;2022-12-29T20:18:17;6.47;;;1.38;;
34775;SDS011;20989;52.566;13.346;2022-12-29T20:21:19;8.02;;;1.38;;